Time;durP1;ratioP1;P1;durP2;ratioP2;P2;SDS_P1;SDS_P2;PMS_P1;PMS_P2;Temp;Humidity;BMP_temperature;BMP_pressure;BME280_temperature;BME280_humidity;BME280_pressure;Samples;Min_cycle;Max_cycle;Signal;HPM_P1;HPM_P2
2022/08/22 00:01:36;;;;;;;5.95;4.58;;;;;;;15.91;87.46;100091.87;1909967;92;28149;-66
2022/08/22 00:05:11;;;;;;;7.08;4.00;;;;;;;15.91;87.53;100081.92;1926455;91;28727;-66
2022/08/22 00:08:24;;;;;;;5.67;4.17;;;;;;;15.92;87.67;100078.23;1933578;91;31125;-66
2022/08/22 00:11:56;;;;;;;6.65;4.30;;;;;;;15.95;87.77;100079.36;1933676;91;33031;-67
2022/08/22 00:15:35;;;;;;;6.00;4.08;;;;;;;15.97;87.72;100088.69;1925179;91;29788;-67
2022/08/22 00:19:13;;;;;;;6.05;4.30;;;;;;;15.99;87.75;100090.79;1933475;91;27980;-66
2022/08/22 00:22:55;;;;;;;12.00;4.80;;;;;;;16.00;87.71;100090.31;1932548;91;27979;-67
2022/08/22 00:26:33;;;;;;;7.37;3.72;;;;;;;15.99;87.78;100095.34;1933662;91;27954;-66
2022/08/22 00:30:00;;;;;;;5.10;4.42;;;;;;;15.99;87.82;100091.30;1887525;93;33081;-66
2022/08/22 00:33:10;;;;;;;4.22;3.80;;;;;;;15.99;87.90;100097.55;1887369;93;28992;-66
2022/08/22 00:36:48;;;;;;;10.72;3.92;;;;;;;16.00;87.94;100091.16;1879254;94;28190;-66
2022/08/22 00:40:35;;;;;;;4.70;3.58;;;;;;;16.01;87.95;100101.00;1815358;97;29114;-66
2022/08/22 00:44:11;;;;;;;4.47;3.37;;;;;;;15.99;88.16;100098.05;1843241;96;31250;-66
2022/08/22 00:47:55;;;;;;;5.40;3.50;;;;;;;15.99;88.14;100092.65;1854410;95;33720;-66
2022/08/22 00:51:30;;;;;;;4.78;3.77;;;;;;;15.99;88.21;100085.39;1846285;95;28022;-66
2022/08/22 00:54:49;;;;;;;6.22;3.45;;;;;;;16.00;87.99;100082.22;1840700;96;28148;-66
2022/08/22 00:58:16;;;;;;;7.50;3.33;;;;;;;16.00;88.19;100075.45;1861675;95;29090;-66
2022/08/22 01:01:33;;;;;;;4.97;3.52;;;;;;;16.00;88.29;100064.65;1858141;95;28483;-67
2022/08/22 01:05:30;;;;;;;4.42;3.77;;;;;;;16.02;88.35;100065.40;1855059;95;33755;-67
2022/08/22 01:09:00;;;;;;;4.30;3.42;;;;;;;16.03;88.42;100063.92;1841719;96;28027;-67
2022/08/22 01:12:50;;;;;;;4.17;3.52;;;;;;;16.04;88.39;100057.54;1843602;96;28100;-68
2022/08/22 01:16:04;;;;;;;7.45;3.33;;;;;;;16.02;88.22;100069.45;1856967;95;29030;-67
2022/08/22 01:19:42;;;;;;;4.20;3.75;;;;;;;16.00;88.08;100071.41;1859641;94;31149;-67
2022/08/22 01:23:00;;;;;;;5.47;3.45;;;;;;;15.97;88.08;100068.42;1854200;95;29841;-67
2022/08/22 01:26:13;;;;;;;4.67;3.20;;;;;;;15.96;88.30;100066.73;1854251;95;30218;-67
2022/08/22 01:30:08;;;;;;;7.58;3.80;;;;;;;15.86;88.02;100054.41;1853940;94;28052;-67
2022/08/22 01:33:44;;;;;;;4.85;3.35;;;;;;;15.94;88.18;100068.19;1854114;95;29127;-68
2022/08/22 01:37:18;;;;;;;4.25;3.37;;;;;;;15.91;88.12;100072.46;1895139;93;28182;-67
2022/08/22 01:40:53;;;;;;;3.77;3.10;;;;;;;15.87;88.18;100071.00;1900853;91;29778;-67
2022/08/22 01:44:20;;;;;;;3.98;2.92;;;;;;;15.86;88.18;100065.69;1832070;96;29401;-67
2022/08/22 01:47:57;;;;;;;3.62;3.00;;;;;;;15.83;88.24;100064.06;1870811;94;28154;-67
2022/08/22 01:51:29;;;;;;;3.55;2.77;;;;;;;15.82;88.23;100057.41;1871454;94;29200;-68
2022/08/22 01:55:01;;;;;;;3.08;2.65;;;;;;;15.80;88.22;100050.78;1873874;94;31181;-66
2022/08/22 01:58:27;;;;;;;5.62;2.45;;;;;;;15.79;88.26;100058.51;1871951;93;29782;-66
2022/08/22 02:01:49;;;;;;;6.12;3.20;;;;;;;15.76;88.22;100054.69;1877861;94;29409;-66
2022/08/22 02:05:02;;;;;;;3.55;2.67;;;;;;;15.75;88.32;100060.59;1870235;93;28086;-66
2022/08/22 02:08:42;;;;;;;4.25;2.62;;;;;;;15.72;88.26;100069.42;1893472;93;28596;-66
2022/08/22 02:11:55;;;;;;;4.22;2.70;;;;;;;15.71;88.32;100065.84;1894647;92;31740;-67
2022/08/22 02:15:23;;;;;;;4.10;2.98;;;;;;;15.72;88.39;100067.56;1871355;93;32938;-68
2022/08/22 02:18:33;;;;;;;4.87;3.12;;;;;;;15.72;88.44;100067.56;1897335;93;29387;-69
2022/08/22 02:22:01;;;;;;;3.02;2.77;;;;;;;15.72;88.49;100070.27;1871088;93;27817;-68
2022/08/22 02:25:18;;;;;;;5.83;3.00;;;;;;;15.64;88.41;100059.16;1896100;93;28800;-68
2022/08/22 02:28:52;;;;;;;2.90;2.70;;;;;;;15.72;88.47;100069.42;1896302;93;31079;-68
2022/08/22 02:32:27;;;;;;;3.72;2.70;;;;;;;15.72;88.47;100075.67;1892940;92;33897;-67
2022/08/22 02:35:49;;;;;;;3.20;2.87;;;;;;;15.70;88.34;100072.22;1861877;95;29438;-67
2022/08/22 02:39:20;;;;;;;6.42;3.05;;;;;;;15.69;88.50;100070.49;1905699;93;41306;-67
2022/08/22 02:42:35;;;;;;;3.83;2.90;;;;;;;15.70;88.49;100076.77;1861950;95;29501;-67
2022/08/22 02:45:52;;;;;;;9.00;2.80;;;;;;;15.68;88.38;100084.97;1901002;93;31533;-67
2022/08/22 02:49:11;;;;;;;3.65;3.00;;;;;;;15.66;88.36;100089.62;1862472;95;32988;-68
2022/08/22 02:52:28;;;;;;;3.33;3.02;;;;;;;15.63;88.32;100087.17;1782338;97;30119;-67
2022/08/22 02:55:48;;;;;;;6.03;3.50;;;;;;;15.62;88.31;100076.00;1782281;99;27998;-67
2022/08/22 02:58:59;;;;;;;3.40;2.83;;;;;;;15.62;88.47;100077.34;1782168;99;29648;-67
2022/08/22 03:02:37;;;;;;;4.22;2.80;;;;;;;15.61;88.45;100080.52;1749617;101;31127;-66
2022/08/22 03:05:47;;;;;;;4.92;3.08;;;;;;;15.60;88.44;100076.59;1763468;100;34921;-67
2022/08/22 03:09:16;;;;;;;6.37;2.98;;;;;;;15.57;88.41;100070.06;1741156;101;30508;-67
2022/08/22 03:12:48;;;;;;;3.40;2.72;;;;;;;15.56;88.33;100079.14;1741225;101;27951;-67
2022/08/22 03:16:00;;;;;;;7.58;2.95;;;;;;;15.51;88.32;100084.89;1741059;101;28862;-68
2022/08/22 03:19:29;;;;;;;3.67;3.10;;;;;;;15.49;88.28;100095.78;1741127;101;32292;-67
2022/08/22 03:22:48;;;;;;;3.37;2.72;;;;;;;15.46;88.34;100095.16;1741040;101;34488;-67
2022/08/22 03:26:21;;;;;;;8.18;3.85;;;;;;;15.48;88.50;100091.86;1741070;101;29389;-66
2022/08/22 03:29:38;;;;;;;3.60;2.75;;;;;;;15.47;88.45;100090.98;1811419;94;28194;-66
2022/08/22 03:32:58;;;;;;;6.62;3.00;;;;;;;15.49;88.52;100089.53;1861738;95;28603;-69
2022/08/22 03:36:18;;;;;;;3.30;3.00;;;;;;;15.41;88.49;100079.30;1865340;94;31283;-67
2022/08/22 03:39:40;;;;;;;4.83;2.95;;;;;;;15.51;88.69;100095.69;1866845;95;33238;-72
2022/08/22 03:43:24;;;;;;;3.33;2.87;;;;;;;15.50;88.49;100093.45;1906916;93;29353;-73
2022/08/22 03:46:52;;;;;;;4.08;2.83;;;;;;;15.50;88.42;100095.31;1866987;95;27800;-74
2022/08/22 03:50:53;;;;;;;4.87;2.85;;;;;;;15.47;88.30;100099.08;1903747;93;28470;-67
2022/08/22 03:54:28;;;;;;;3.02;2.60;;;;;;;15.46;88.32;100096.50;1866937;95;31139;-70
2022/08/22 03:58:05;;;;;;;3.70;2.67;;;;;;;15.47;88.46;100087.43;1867385;95;32996;-73
2022/08/22 04:01:19;;;;;;;5.55;2.52;;;;;;;15.46;88.29;100087.05;1867233;95;29358;-71
2022/08/22 04:04:56;;;;;;;4.00;2.08;;;;;;;15.40;88.32;100080.28;1866984;95;27796;-73
2022/08/22 04:08:28;;;;;;;2.70;2.37;;;;;;;15.40;87.99;100091.08;1894299;93;28674;-74
2022/08/22 04:12:16;;;;;;;6.33;2.60;;;;;;;15.40;87.99;100091.08;1863993;95;31362;-75
2022/08/22 04:15:56;;;;;;;7.28;2.70;;;;;;;15.41;88.24;100102.25;1864161;95;32980;-76
2022/08/22 04:19:26;;;;;;;7.42;2.65;;;;;;;15.40;88.21;100105.05;1863927;95;29379;-76
2022/08/22 04:23:06;;;;;;;5.40;2.77;;;;;;;15.40;88.26;100106.39;1864266;95;28020;-72
2022/08/22 04:26:24;;;;;;;6.30;2.70;;;;;;;15.39;88.33;100105.55;1864280;95;28663;-74
2022/08/22 04:29:57;;;;;;;5.40;2.52;;;;;;;15.42;88.42;100106.67;1864351;95;31047;-72
2022/08/22 04:33:11;;;;;;;4.72;2.80;;;;;;;15.43;88.48;100102.13;1864254;95;33166;-74
2022/08/22 04:36:21;;;;;;;3.77;2.30;;;;;;;15.38;88.29;100090.32;1864170;95;29390;-74
2022/08/22 04:39:29;;;;;;;4.22;2.65;;;;;;;15.42;88.38;100098.58;1861804;95;27902;-68
2022/08/22 04:42:48;;;;;;;3.58;2.33;;;;;;;15.42;88.24;100102.63;1881607;93;28682;-73
2022/08/22 04:45:58;;;;;;;5.80;2.70;;;;;;;15.33;88.21;100087.97;1895317;92;31255;-73
2022/08/22 04:49:17;;;;;;;4.53;2.35;;;;;;;15.42;88.36;100112.07;1890746;93;32977;-74
2022/08/22 04:52:34;;;;;;;6.20;2.45;;;;;;;15.34;88.34;100100.48;1895184;93;29514;-69
2022/08/22 04:56:23;;;;;;;5.90;2.58;;;;;;;15.30;88.40;100084.13;1894204;93;27963;-72
2022/08/22 04:59:27;;;;;;;4.42;2.77;;;;;;;15.30;88.40;100084.13;1893343;93;28682;-73
2022/08/22 05:02:30;;;;;;;2.30;2.10;;;;;;;15.45;88.51;100107.81;1893509;93;31058;-71
2022/08/22 05:05:38;;;;;;;2.45;2.10;;;;;;;15.46;88.44;100104.60;1893125;93;32997;-72
2022/08/22 05:08:46;;;;;;;4.92;2.30;;;;;;;15.48;88.43;100105.36;1891341;93;29484;-68
2022/08/22 05:11:54;;;;;;;3.87;2.27;;;;;;;15.52;88.47;100111.38;1893554;93;27747;-71
2022/08/22 05:15:10;;;;;;;3.62;2.15;;;;;;;15.53;88.62;100109.06;1893609;93;28686;-73
2022/08/22 05:18:23;;;;;;;3.67;2.55;;;;;;;15.56;88.56;100108.84;1893801;93;31190;-73
2022/08/22 05:21:30;;;;;;;4.00;1.80;;;;;;;15.59;88.53;100105.92;1893811;93;32991;-71
2022/08/22 05:24:39;;;;;;;4.62;1.98;;;;;;;15.59;88.53;100105.92;1893990;93;29338;-73
2022/08/22 05:27:49;;;;;;;2.90;2.17;;;;;;;15.63;88.74;100111.48;1894043;93;27904;-71
2022/08/22 05:30:51;;;;;;;2.52;1.85;;;;;;;15.63;88.74;100111.48;1893891;93;28855;-73
2022/08/22 05:33:58;;;;;;;4.65;2.20;;;;;;;15.67;88.61;100113.45;1895033;93;31061;-75
2022/08/22 05:37:23;;;;;;;2.45;1.98;;;;;;;15.68;88.60;100117.88;1895243;93;33620;-76
2022/08/22 05:40:28;;;;;;;4.10;2.20;;;;;;;15.72;88.68;100122.09;1895333;93;29432;-72
2022/08/22 05:43:39;;;;;;;2.67;2.00;;;;;;;15.73;88.60;100127.36;1895282;93;27851;-73
2022/08/22 05:46:53;;;;;;;2.80;2.33;;;;;;;15.74;88.48;100132.26;1875747;93;28509;-73
2022/08/22 05:50:05;;;;;;;4.95;2.67;;;;;;;15.75;88.62;100127.23;1894790;91;31113;-72
2022/08/22 05:53:37;;;;;;;2.77;2.12;;;;;;;15.78;88.61;100127.02;1892128;93;33220;-67
2022/08/22 05:56:43;;;;;;;4.00;2.40;;;;;;;15.78;88.60;100129.24;1876442;93;29345;-70
2022/08/22 05:59:47;;;;;;;3.65;2.37;;;;;;;15.82;88.71;100124.94;1895441;93;27756;-76
2022/08/22 06:03:15;;;;;;;3.63;2.37;;;;;;;15.84;88.58;100126.56;1895506;93;28668;-74
2022/08/22 06:06:18;;;;;;;2.85;2.10;;;;;;;15.87;88.67;100126.84;1894997;93;31118;-74
2022/08/22 06:09:40;;;;;;;2.30;2.05;;;;;;;15.89;88.60;100128.45;1875671;93;33088;-72
2022/08/22 06:12:50;;;;;;;3.77;2.25;;;;;;;15.91;88.57;100130.55;1905325;93;29425;-73
2022/08/22 06:16:03;;;;;;;2.22;2.02;;;;;;;15.95;88.56;100137.95;1895377;93;27825;-73
2022/08/22 06:19:06;;;;;;;3.95;2.80;;;;;;;15.95;88.38;100140.16;1895391;93;28673;-69
2022/08/22 06:22:09;;;;;;;3.62;2.47;;;;;;;15.97;88.29;100144.58;1895327;93;31150;-70
2022/08/22 06:25:15;;;;;;;3.33;2.05;;;;;;;15.97;88.27;100140.53;1895183;93;32990;-72
2022/08/22 06:28:25;;;;;;;3.37;2.02;;;;;;;16.00;88.37;100137.61;1895167;93;29323;-73
2022/08/22 06:31:35;;;;;;;4.33;2.77;;;;;;;16.02;88.40;100140.55;1895354;93;27830;-76
2022/08/22 06:34:41;;;;;;;2.45;2.17;;;;;;;16.02;88.17;100138.36;1895184;93;28949;-78
2022/08/22 06:37:45;;;;;;;5.53;2.92;;;;;;;16.06;88.26;100146.11;1895248;93;31116;-75
2022/08/22 06:40:49;;;;;;;2.83;2.08;;;;;;;16.06;88.12;100143.41;1875990;93;32958;-72
2022/08/22 06:43:52;;;;;;;3.10;2.17;;;;;;;16.08;88.35;100145.51;1895274;93;29347;-72
2022/08/22 06:46:58;;;;;;;3.95;2.20;;;;;;;16.10;88.12;100142.67;1895253;93;27715;-73
2022/08/22 06:50:22;;;;;;;2.12;1.77;;;;;;;16.11;88.09;100143.05;1895284;93;28678;-74
2022/08/22 06:53:38;;;;;;;2.25;2.02;;;;;;;16.14;88.03;100150.05;1895381;93;31080;-73
2022/08/22 06:56:46;;;;;;;3.37;1.98;;;;;;;16.15;88.06;100151.31;1895049;93;33052;-73
2022/08/22 06:59:48;;;;;;;3.47;2.37;;;;;;;16.15;87.66;100152.66;1895322;93;29346;-72
2022/08/22 07:02:58;;;;;;;2.17;1.98;;;;;;;16.15;87.67;100150.43;1895408;93;27569;-73
2022/08/22 07:06:00;;;;;;;3.95;1.80;;;;;;;16.16;87.89;100147.62;1895336;93;28852;-74
2022/08/22 07:09:04;;;;;;;5.87;1.90;;;;;;;16.20;87.89;100156.36;1895025;93;31068;-71
2022/08/22 07:12:19;;;;;;;3.70;2.22;;;;;;;16.22;87.96;100148.50;1895135;93;33084;-76
2022/08/22 07:15:33;;;;;;;1.67;1.37;;;;;;;16.25;87.85;100154.18;1895226;93;29548;-75
2022/08/22 07:18:45;;;;;;;2.00;1.90;;;;;;;16.25;87.72;100150.97;1895023;93;27937;-77
2022/08/22 07:21:48;;;;;;;2.80;1.60;;;;;;;16.25;87.82;100155.02;1894569;93;28659;-75
2022/08/22 07:24:58;;;;;;;5.25;2.10;;;;;;;16.23;87.47;100150.22;1894277;93;31290;-76
2022/08/22 07:28:21;;;;;;;2.37;1.65;;;;;;;16.24;87.71;100150.59;1892907;93;33059;-74
2022/08/22 07:31:56;;;;;;;4.83;1.32;;;;;;;16.25;87.67;100150.97;1894613;93;29347;-74
2022/08/22 07:35:12;;;;;;;4.75;1.67;;;;;;;16.27;87.82;100152.23;1837104;96;27873;-76
2022/08/22 07:38:41;;;;;;;2.65;1.75;;;;;;;16.29;87.72;100155.67;1809357;97;28698;-76
2022/08/22 07:42:15;;;;;;;3.95;1.65;;;;;;;16.33;87.85;100156.30;1809073;98;31196;-75
2022/08/22 07:45:38;;;;;;;3.50;1.52;;;;;;;16.38;87.91;100156.81;1809287;98;33077;-74
2022/08/22 07:48:48;;;;;;;1.70;1.60;;;;;;;16.42;88.00;100151.52;1809354;98;29450;-75
2022/08/22 07:51:54;;;;;;;1.98;1.45;;;;;;;16.45;87.90;100154.00;1809032;98;27833;-73
2022/08/22 07:55:16;;;;;;;1.70;1.50;;;;;;;16.48;87.88;100154.23;1809233;98;30064;-77
2022/08/22 07:58:22;;;;;;;1.27;1.12;;;;;;;16.50;87.78;100155.87;1809114;98;31086;-74
2022/08/22 08:01:25;;;;;;;2.65;1.35;;;;;;;16.53;87.94;100154.76;1809295;98;32992;-73
2022/08/22 08:04:33;;;;;;;1.22;0.90;;;;;;;16.58;87.99;100161.16;1809366;98;29353;-74
2022/08/22 08:07:38;;;;;;;1.40;1.30;;;;;;;16.61;87.78;100163.63;1820189;95;27656;-75
2022/08/22 08:10:41;;;;;;;1.80;1.27;;;;;;;16.61;87.84;100160.45;1846592;93;28721;-74
2022/08/22 08:13:47;;;;;;;1.70;1.60;;;;;;;16.66;87.91;100161.44;1895609;93;31092;-74
2022/08/22 08:17:16;;;;;;;2.35;1.42;;;;;;;16.67;87.81;100159.95;1936881;91;32995;-75
2022/08/22 08:20:21;;;;;;;1.47;1.37;;;;;;;16.68;87.72;100161.68;1895616;93;29368;-77
2022/08/22 08:23:25;;;;;;;2.30;1.20;;;;;;;16.71;87.77;100161.45;1936999;91;27871;-77
2022/08/22 08:28:32;;;;;;;1.90;1.50;;;;;;;16.69;87.37;100159.35;1926326;92;28679;-73
2022/08/22 08:29:55;;;;;;;1.77;1.25;;;;;;;16.69;87.60;100167.97;1923113;92;31086;-75
2022/08/22 08:33:00;;;;;;;1.72;1.20;;;;;;;16.74;87.74;100168.95;1926252;92;33038;-76
2022/08/22 08:36:10;;;;;;;1.32;1.22;;;;;;;16.75;87.70;100164.77;1926551;92;29376;-74
2022/08/22 08:39:32;;;;;;;1.67;1.30;;;;;;;16.78;87.64;100162.34;1926263;92;27847;-77
2022/08/22 08:46:45;;;;;;;1.60;1.50;;;;;;;16.72;87.60;100150.13;1926560;91;31044;-71
2022/08/22 08:49:58;;;;;;;1.98;1.67;;;;;;;16.80;87.57;100161.22;1926299;91;32995;-74
2022/08/22 08:53:26;;;;;;;1.98;1.67;;;;;;;16.86;87.73;100157.17;1926311;91;29419;-74
2022/08/22 08:56:46;;;;;;;3.30;2.30;;;;;;;16.89;87.62;100160.99;1925977;91;27944;-73
2022/08/22 09:00:13;;;;;;;2.92;2.12;;;;;;;16.92;87.55;100158.53;1889377;93;28761;-71
2022/08/22 09:04:14;;;;;;;3.85;2.35;;;;;;;16.93;87.36;100156.20;1889348;94;31835;-75
2022/08/22 09:07:54;;;;;;;4.03;2.17;;;;;;;16.95;87.55;100159.20;1889560;93;32987;-72
2022/08/22 09:11:16;;;;;;;3.33;2.85;;;;;;;17.00;87.65;100162.38;1891217;93;29568;-78
2022/08/22 09:14:39;;;;;;;4.87;2.72;;;;;;;17.05;87.54;100156.60;1891277;93;27998;-74
2022/08/22 09:18:05;;;;;;;3.08;2.58;;;;;;;17.10;87.60;100155.75;1857885;93;28596;-74
2022/08/22 09:21:27;;;;;;;5.03;3.55;;;;;;;17.18;87.70;100157.00;1891844;93;31051;-73
2022/08/22 09:24:54;;;;;;;6.62;3.50;;;;;;;17.20;87.16;100160.45;1891914;93;33156;-72
2022/08/22 09:28:20;;;;;;;5.40;3.25;;;;;;;17.21;87.36;100156.77;1891410;93;29333;-77
2022/08/22 09:31:48;;;;;;;6.95;3.40;;;;;;;17.24;87.36;100152.43;1892048;93;27702;-75
2022/08/22 09:35:07;;;;;;;3.45;3.15;;;;;;;17.29;87.30;100144.81;1891612;93;28762;-74
2022/08/22 09:38:54;;;;;;;4.20;3.80;;;;;;;17.30;87.19;100143.31;1930364;92;31154;-73
2022/08/22 09:42:19;;;;;;;5.92;3.95;;;;;;;17.31;86.94;100146.39;1891643;93;33983;-76
2022/08/22 09:46:11;;;;;;;6.05;4.03;;;;;;;17.29;86.88;100151.07;1877734;94;29442;-76
2022/08/22 09:49:24;;;;;;;7.28;4.00;;;;;;;17.32;87.06;100148.63;1842817;95;27774;-75
2022/08/22 09:52:59;;;;;;;5.35;4.62;;;;;;;17.34;86.98;100145.78;1842422;96;28709;-73
2022/08/22 09:56:22;;;;;;;7.10;4.70;;;;;;;17.38;87.14;100143.20;1842298;96;31061;-75
2022/08/22 09:59:39;;;;;;;5.78;4.42;;;;;;;17.43;87.13;100143.70;1842538;96;32976;-73
2022/08/22 10:03:04;;;;;;;7.67;5.45;;;;;;;17.44;87.00;100138.66;1842704;96;29360;-73
2022/08/22 10:06:23;;;;;;;8.53;4.78;;;;;;;17.50;87.15;100134.08;1841273;96;28090;-73
2022/08/22 10:09:47;;;;;;;6.00;5.20;;;;;;;17.54;87.10;100126.08;1853402;94;28676;-75
2022/08/22 10:13:32;;;;;;;7.40;5.30;;;;;;;17.65;87.21;100129.73;1844849;95;31101;-74
2022/08/22 10:17:01;;;;;;;7.33;5.33;;;;;;;17.73;86.98;100139.46;1874634;94;33015;-74
2022/08/22 10:20:14;;;;;;;10.50;5.28;;;;;;;17.77;86.66;100136.88;1875111;94;29428;-72
2022/08/22 10:23:31;;;;;;;10.23;5.40;;;;;;;17.77;86.59;100136.88;1881886;92;28059;-71
2022/08/22 10:26:59;;;;;;;6.60;5.05;;;;;;;17.79;86.70;100142.16;1926011;91;28659;-73
2022/08/22 10:30:15;;;;;;;7.33;6.08;;;;;;;17.83;86.75;100135.50;1925787;91;28556;-74
2022/08/22 10:33:52;;;;;;;7.42;6.03;;;;;;;17.82;86.55;100140.55;1925755;92;32943;-72
2022/08/22 10:37:31;;;;;;;8.90;6.17;;;;;;;17.81;86.32;100141.53;1915962;92;29388;-68
2022/08/22 10:40:47;;;;;;;8.28;6.30;;;;;;;17.77;86.22;100145.00;1922609;91;28114;-70
2022/08/22 10:44:09;;;;;;;8.75;6.90;;;;;;;17.77;86.40;100145.00;1925916;91;28631;-73
2022/08/22 10:47:22;;;;;;;7.67;6.62;;;;;;;17.74;86.39;100140.67;1922872;92;31100;-71
2022/08/22 10:50:40;;;;;;;8.80;6.28;;;;;;;17.73;86.34;100153.01;1922670;91;33110;-67
2022/08/22 10:54:25;;;;;;;11.12;7.20;;;;;;;17.71;86.42;100149.56;1923403;92;29426;-68
2022/08/22 10:58:05;;;;;;;8.83;7.10;;;;;;;17.66;86.53;100135.05;1925638;92;27561;-71
2022/08/22 11:01:10;;;;;;;10.82;7.40;;;;;;;17.74;86.69;100145.25;1925232;91;28921;-70
2022/08/22 11:04:46;;;;;;;9.13;7.85;;;;;;;17.79;86.63;100140.80;1925009;91;31072;-66
2022/08/22 11:08:06;;;;;;;10.05;7.72;;;;;;;17.73;86.42;100147.08;1917222;92;32999;-71
2022/08/22 11:11:33;;;;;;;9.45;7.62;;;;;;;17.71;86.48;100153.12;1915949;92;29419;-68
2022/08/22 11:15:11;;;;;;;14.45;7.35;;;;;;;17.70;86.55;100150.07;1919020;92;28096;-71
2022/08/22 11:18:36;;;;;;;11.93;8.18;;;;;;;17.68;86.51;100149.81;1918792;92;28729;-70
2022/08/22 11:21:47;;;;;;;12.10;9.03;;;;;;;17.66;86.68;100147.23;1918663;92;31476;-76
2022/08/22 11:25:07;;;;;;;9.98;8.13;;;;;;;17.66;86.65;100147.72;1918999;92;33013;-71
2022/08/22 11:28:41;;;;;;;11.10;8.73;;;;;;;17.64;86.70;100152.39;1910572;92;29408;-71
2022/08/22 11:31:57;;;;;;;10.53;9.20;;;;;;;17.67;87.02;100153.50;1919184;92;27778;-72
2022/08/22 11:35:15;;;;;;;11.08;9.38;;;;;;;17.68;86.93;100155.23;1915826;92;28777;-66
2022/08/22 11:38:47;;;;;;;12.07;9.85;;;;;;;17.66;86.96;100146.36;1893796;92;31069;-66
2022/08/22 11:42:07;;;;;;;10.82;8.88;;;;;;;17.69;87.16;100148.82;1861699;95;33042;-71
2022/08/22 11:45:17;;;;;;;9.78;8.68;;;;;;;17.73;87.14;100153.86;1835359;95;29583;-72
2022/08/22 11:48:37;;;;;;;11.38;9.63;;;;;;;17.72;86.95;100156.20;1884184;94;27996;-66
2022/08/22 11:52:15;;;;;;;12.15;10.10;;;;;;;17.72;86.86;100153.48;1887270;94;28628;-71
2022/08/22 11:55:36;;;;;;;;;;;;;;;17.70;87.01;100150.07;1891887;94;31082;-75
2022/08/22 11:58:50;;;;;;;10.38;9.38;;;;;;;17.72;87.05;100152.64;1886328;94;33143;-69
2022/08/22 12:02:06;;;;;;;10.70;9.40;;;;;;;17.74;87.45;100153.38;1886581;93;29341;-72
2022/08/22 12:05:20;;;;;;;13.62;9.00;;;;;;;17.78;87.18;100154.86;1888743;94;27693;-68
2022/08/22 12:08:45;;;;;;;12.65;9.55;;;;;;;17.80;87.16;100160.14;1882086;94;28720;-66
2022/08/22 12:12:11;;;;;;;12.25;9.80;;;;;;;17.86;87.38;100159.64;1856276;95;31248;-71
2022/08/22 12:15:21;;;;;;;12.43;10.13;;;;;;;17.94;87.39;100160.36;1856391;95;32891;-73
2022/08/22 12:19:02;;;;;;;10.40;9.33;;;;;;;17.99;87.36;100151.36;1873266;92;29443;-74
2022/08/22 12:22:36;;;;;;;10.30;9.10;;;;;;;18.06;87.45;100149.36;1929536;92;27965;-76
2022/08/22 12:25:53;;;;;;;10.28;9.13;;;;;;;18.16;87.48;100151.32;1929268;92;28759;-74
2022/08/22 12:29:13;;;;;;;10.82;9.68;;;;;;;18.20;87.16;100150.08;1927053;92;31051;-71
2022/08/22 12:33:01;;;;;;;9.90;8.80;;;;;;;18.27;87.31;100147.70;1929366;92;33103;-70
2022/08/22 12:36:19;;;;;;;10.90;9.50;;;;;;;18.31;87.18;100147.31;1880168;93;28150;-75
2022/08/22 12:40:07;;;;;;;10.28;9.28;;;;;;;18.30;86.75;100147.42;1855504;95;27876;-74
2022/08/22 12:43:43;;;;;;;12.23;9.68;;;;;;;18.32;86.81;100146.32;1941109;91;28933;-72
2022/08/22 12:47:31;;;;;;;14.47;11.10;;;;;;;18.34;86.96;100147.05;1913625;92;28144;-67
2022/08/22 12:50:44;;;;;;;12.80;10.60;;;;;;;18.37;86.87;100146.77;1914179;92;32605;-71
2022/08/22 12:54:27;;;;;;;14.10;11.22;;;;;;;18.36;86.78;100150.50;1916475;91;29404;-75
2022/08/22 12:57:38;;;;;;;16.27;11.70;;;;;;;18.36;86.70;100141.01;1917133;92;28010;-74
2022/08/22 13:00:50;;;;;;;14.73;11.85;;;;;;;18.38;86.90;100147.13;1917332;92;28760;-73
2022/08/22 13:04:03;;;;;;;11.65;10.43;;;;;;;18.40;86.96;100135.30;1913489;92;31102;-70
2022/08/22 13:07:10;;;;;;;13.20;11.12;;;;;;;18.46;87.15;100132.91;1916571;92;33542;-69
2022/08/22 13:10:44;;;;;;;15.93;11.25;;;;;;;18.53;87.02;100134.12;1921688;90;29391;-77
2022/08/22 13:13:53;;;;;;;12.47;10.98;;;;;;;18.59;87.12;100131.38;1930295;92;27566;-74
2022/08/22 13:17:02;;;;;;;12.75;10.08;;;;;;;18.62;86.81;100137.02;1933770;91;28659;-74
2022/08/22 13:20:15;;;;;;;14.38;10.98;;;;;;;18.67;86.95;100141.56;1896977;93;31501;-68
2022/08/22 13:23:38;;;;;;;12.30;10.98;;;;;;;18.65;86.47;100138.12;1930699;91;32945;-68
2022/08/22 13:26:54;;;;;;;12.28;10.98;;;;;;;18.61;86.48;100143.47;1894839;93;27971;-66
2022/08/22 13:30:05;;;;;;;12.95;11.60;;;;;;;18.60;86.47;100144.45;1897844;93;27858;-70
2022/08/22 13:33:18;;;;;;;15.55;12.23;;;;;;;18.60;86.60;100135.80;1930819;92;28702;-72
2022/08/22 13:36:24;;;;;;;16.65;12.13;;;;;;;18.63;86.76;100142.33;1937372;91;31459;-70
2022/08/22 13:39:32;;;;;;;15.98;12.43;;;;;;;18.64;86.48;100139.98;1912333;91;32882;-71
2022/08/22 13:42:39;;;;;;;15.48;13.32;;;;;;;18.62;86.48;100141.09;1927119;92;29338;-66
2022/08/22 13:45:55;;;;;;;14.25;12.25;;;;;;;18.61;86.45;100136.69;1926883;92;27934;-68
2022/08/22 13:49:01;;;;;;;15.07;12.80;;;;;;;18.59;86.51;100145.45;1930645;92;28672;-71
2022/08/22 13:52:36;;;;;;;18.67;13.48;;;;;;;18.59;86.46;100141.38;1927632;92;31086;-66
2022/08/22 13:55:53;;;;;;;14.47;12.95;;;;;;;18.56;86.46;100140.28;1917508;91;33035;-73
2022/08/22 13:59:01;;;;;;;18.75;13.80;;;;;;;18.54;86.49;100133.61;1927335;92;29014;-68
2022/08/22 14:02:28;;;;;;;18.73;13.62;;;;;;;18.52;86.46;100140.54;1927723;92;27879;-66
2022/08/22 14:05:38;;;;;;;18.12;14.23;;;;;;;18.50;86.39;100139.80;1923877;92;28751;-67
2022/08/22 14:08:47;;;;;;;16.23;14.05;;;;;;;18.48;86.33;100136.36;1879010;93;31306;-67
2022/08/22 14:12:09;;;;;;;19.87;13.90;;;;;;;18.49;86.47;100132.66;1950307;90;33055;-67
2022/08/22 14:15:20;;;;;;;15.35;13.62;;;;;;;18.50;86.57;100133.02;1910683;92;27938;-66
2022/08/22 14:18:31;;;;;;;15.40;12.98;;;;;;;18.52;86.54;100130.20;1910700;91;27951;-66
2022/08/22 14:21:58;;;;;;;18.98;13.03;;;;;;;18.53;86.62;100129.20;1910861;92;28096;-65
2022/08/22 14:25:24;;;;;;;15.43;11.40;;;;;;;18.55;86.69;100129.91;1912127;91;27974;-66
2022/08/22 14:28:35;;;;;;;17.95;11.28;;;;;;;18.56;86.52;100127.56;1872500;93;33164;-65
2022/08/22 14:32:03;;;;;;;16.90;11.25;;;;;;;18.57;86.69;100133.35;1890701;93;29558;-67
2022/08/22 14:35:21;;;;;;;15.43;11.93;;;;;;;18.62;86.74;100134.30;1891356;93;27944;-67
2022/08/22 14:38:42;;;;;;;14.00;10.88;;;;;;;18.63;86.66;100127.41;1831275;96;28731;-66
2022/08/22 14:41:55;;;;;;;16.10;12.85;;;;;;;18.66;86.52;100127.63;1879723;94;31713;-67
2022/08/22 14:45:13;;;;;;;14.58;12.28;;;;;;;18.67;86.57;100132.06;1879020;94;33666;-68
2022/08/22 14:48:29;;;;;;;17.57;12.75;;;;;;;18.68;86.47;100131.08;1879687;94;29589;-66
2022/08/22 14:51:41;;;;;;;17.17;12.33;;;;;;;18.67;86.42;100134.30;1879973;94;28067;-66
2022/08/22 14:54:51;;;;;;;18.35;13.22;;;;;;;18.65;86.23;100132.21;1861545;94;28711;-70
2022/08/22 14:58:02;;;;;;;18.95;14.55;;;;;;;18.66;86.43;100134.41;1878669;94;28660;-66
2022/08/22 15:01:20;;;;;;;20.48;14.43;;;;;;;18.70;86.43;100137.23;1879783;94;30052;-65
2022/08/22 15:04:43;;;;;;;18.05;13.75;;;;;;;18.70;86.31;100137.74;1879549;94;29396;-68
2022/08/22 15:07:58;;;;;;;21.43;15.10;;;;;;;18.68;86.23;100136.02;1881236;94;28080;-67
2022/08/22 15:11:23;;;;;;;23.85;15.60;;;;;;;18.66;86.30;100133.93;1886554;92;28677;-67
2022/08/22 15:14:48;;;;;;;24.07;15.80;;;;;;;18.66;86.18;100137.12;1897142;92;31160;-66
2022/08/22 15:17:57;;;;;;;21.20;16.02;;;;;;;18.62;86.18;100131.11;1922368;92;29988;-66
2022/08/22 15:21:26;;;;;;;23.40;16.10;;;;;;;18.61;86.17;100126.67;1922479;92;29440;-67
2022/08/22 15:24:34;;;;;;;24.02;16.95;;;;;;;18.59;86.21;100125.95;1922581;91;27989;-67
2022/08/22 15:27:59;;;;;;;20.45;15.95;;;;;;;18.58;86.27;100126.09;1910153;92;29186;-67
2022/08/22 15:31:10;;;;;;;22.25;16.02;;;;;;;18.57;86.28;100119.79;1875367;94;30850;-68
2022/08/22 15:34:32;;;;;;;24.60;17.02;;;;;;;18.57;86.42;100121.14;1876613;94;33021;-73